createdAt,value
2022-10-10T00:01:29.113Z,98871.69
2022-10-10T00:04:35.291Z,98871.91
2022-10-10T00:07:37.705Z,98871.59
2022-10-10T00:10:42.410Z,98872.97
2022-10-10T00:13:45.465Z,98872.63
2022-10-10T00:16:48.094Z,98861.03
2022-10-10T00:19:50.511Z,98863.91
2022-10-10T00:22:53.539Z,98873.13
2022-10-10T00:25:56.597Z,98876.28
2022-10-10T00:28:59.228Z,98861.25
2022-10-10T00:32:01.808Z,98870.00
2022-10-10T00:35:07.154Z,98878.88
2022-10-10T00:38:14.322Z,98868.38
2022-10-10T00:41:18.211Z,98864.59
2022-10-10T00:44:20.830Z,98866.56
2022-10-10T00:47:23.397Z,98869.81
2022-10-10T00:50:29.157Z,98867.31
2022-10-10T00:53:37.302Z,98862.19
2022-10-10T00:56:52.214Z,98857.09
2022-10-10T00:59:54.637Z,98863.78
2022-10-10T01:02:57.218Z,98859.59
2022-10-10T01:05:59.784Z,98853.31
2022-10-10T01:09:05.538Z,98854.44
2022-10-10T01:12:19.116Z,98857.72
2022-10-10T01:15:29.660Z,98853.63
2022-10-10T01:18:57.208Z,98851.47
2022-10-10T01:22:12.763Z,98836.66
2022-10-10T01:26:11.765Z,98838.88
2022-10-10T01:29:20.136Z,98842.94
2022-10-10T01:32:53.907Z,98844.09
2022-10-10T01:36:01.341Z,98842.09
2022-10-10T01:39:19.485Z,98826.84
2022-10-10T01:42:31.573Z,98830.22
2022-10-10T01:45:35.150Z,98830.00
2022-10-10T01:48:38.638Z,98824.25
2022-10-10T01:51:44.386Z,98824.13
2022-10-10T01:54:53.650Z,98821.84
2022-10-10T01:57:59.031Z,98815.69
2022-10-10T02:01:07.951Z,98816.34
2022-10-10T02:04:35.277Z,98822.28
2022-10-10T02:07:45.786Z,98815.78
2022-10-10T02:10:55.331Z,98816.00
2022-10-10T02:14:03.491Z,98819.31
2022-10-10T02:17:08.909Z,98809.81
2022-10-10T02:20:12.532Z,98816.00
2022-10-10T02:23:24.827Z,98809.53
2022-10-10T02:26:29.101Z,98806.19
2022-10-10T02:29:37.407Z,98801.94
2022-10-10T02:32:47.606Z,98801.31
2022-10-10T02:35:56.591Z,98800.97
2022-10-10T02:39:04.829Z,98803.94
2022-10-10T02:42:11.078Z,98806.00
2022-10-10T02:45:13.836Z,98794.19
2022-10-10T02:48:17.624Z,98795.16
2022-10-10T02:51:20.208Z,98793.50
2022-10-10T02:54:22.746Z,98799.53
2022-10-10T02:57:25.336Z,98799.75
2022-10-10T03:00:27.796Z,98792.13
2022-10-10T03:03:30.441Z,98793.09
2022-10-10T03:06:33.015Z,98792.25
2022-10-10T03:09:35.834Z,98786.84
2022-10-10T03:12:38.341Z,98792.34
2022-10-10T03:15:40.923Z,98798.72
2022-10-10T03:18:43.416Z,98796.59
2022-10-10T03:21:48.865Z,98789.50
2022-10-10T03:24:51.508Z,98795.22
2022-10-10T03:27:54.084Z,98790.34
2022-10-10T03:30:56.878Z,98788.38
2022-10-10T03:33:59.941Z,98796.31
2022-10-10T03:37:02.809Z,98781.50
2022-10-10T03:40:10.966Z,98781.91
2022-10-10T03:43:15.285Z,98779.94
2022-10-10T03:46:17.889Z,98785.13
2022-10-10T03:49:24.641Z,98785.69
2022-10-10T03:52:30.603Z,98787.47
2022-10-10T03:55:33.363Z,98783.28
2022-10-10T03:58:35.946Z,98777.03
2022-10-10T04:01:41.467Z,98787.66
2022-10-10T04:04:44.098Z,98784.84
2022-10-10T04:07:47.221Z,98787.44
2022-10-10T04:10:53.191Z,98785.56
2022-10-10T04:13:56.055Z,98782.03
2022-10-10T04:17:02.275Z,98784.53
2022-10-10T04:20:07.147Z,98778.69
2022-10-10T04:23:09.863Z,98781.28
2022-10-10T04:26:12.630Z,98777.44
2022-10-10T04:29:15.110Z,98776.41
2022-10-10T04:32:18.026Z,98774.28
2022-10-10T04:35:20.554Z,98772.84
2022-10-10T04:38:24.371Z,98778.25
2022-10-10T04:41:29.673Z,98774.94
2022-10-10T04:44:33.153Z,98775.97
2022-10-10T04:47:36.218Z,98783.88
2022-10-10T04:50:39.716Z,98776.81
2022-10-10T04:53:50.063Z,98786.81
2022-10-10T04:56:58.670Z,98777.03
2022-10-10T05:00:07.026Z,98769.94
2022-10-10T05:03:15.993Z,98776.06
2022-10-10T05:06:21.846Z,98775.97
2022-10-10T05:09:25.070Z,98778.25
2022-10-10T05:12:28.074Z,98776.81
2022-10-10T05:15:31.725Z,98778.06
2022-10-10T05:18:40.297Z,98779.50
2022-10-10T05:21:43.379Z,98769.63
2022-10-10T05:24:46.398Z,98771.38
2022-10-10T05:27:49.450Z,98771.88
2022-10-10T05:30:52.501Z,98780.53
2022-10-10T05:33:58.938Z,98784.38
2022-10-10T05:37:02.399Z,98780.50
2022-10-10T05:40:05.975Z,98778.22
2022-10-10T05:43:08.876Z,98783.16
2022-10-10T05:46:12.113Z,98780.00
2022-10-10T05:49:15.279Z,98788.25
2022-10-10T05:52:18.468Z,98773.34
2022-10-10T05:55:21.117Z,98780.59
2022-10-10T05:58:24.835Z,98776.13
2022-10-10T06:01:32.850Z,98779.03
2022-10-10T06:04:38.307Z,98789.34
2022-10-10T06:08:03.597Z,98779.13
2022-10-10T06:11:08.626Z,98785.75
2022-10-10T06:14:11.590Z,98778.94
2022-10-10T06:17:17.363Z,98775.22
2022-10-10T06:20:23.310Z,98779.69
2022-10-10T06:23:29.161Z,98781.31
2022-10-10T06:26:34.709Z,98780.50
2022-10-10T06:29:38.146Z,98775.22
2022-10-10T06:32:43.771Z,98774.22
2022-10-10T06:35:48.894Z,98774.84
2022-10-10T06:38:51.744Z,98769.78
2022-10-10T06:41:54.795Z,98779.06
2022-10-10T06:45:05.909Z,98780.88
2022-10-10T06:48:13.633Z,98776.41
2022-10-10T06:51:17.423Z,98780.91
2022-10-10T06:54:20.023Z,98771.00
2022-10-10T06:57:23.485Z,98776.91
2022-10-10T07:00:26.491Z,98778.81
2022-10-10T07:03:30.509Z,98786.53
2022-10-10T07:06:34.942Z,98783.34
2022-10-10T07:09:40.933Z,98785.03
2022-10-10T07:12:44.936Z,98787.03
2022-10-10T07:15:51.353Z,98787.66
2022-10-10T07:18:56.688Z,98789.88
2022-10-10T07:21:59.296Z,98783.75
2022-10-10T07:25:02.692Z,98782.28
2022-10-10T07:28:10.298Z,98777.72
2022-10-10T07:31:13.016Z,98785.59
2022-10-10T07:34:15.556Z,98782.69
2022-10-10T07:37:19.119Z,98779.63
2022-10-10T07:40:21.837Z,98776.31
2022-10-10T07:43:27.331Z,98777.41
2022-10-10T07:46:33.075Z,98770.13
2022-10-10T07:49:36.518Z,98764.00
2022-10-10T07:52:43.253Z,98762.06
2022-10-10T07:55:46.864Z,98764.69
2022-10-10T07:58:49.794Z,98768.88
2022-10-10T08:01:56.443Z,98759.31
2022-10-10T08:04:59.009Z,98762.41
2022-10-10T08:08:02.230Z,98766.59
2022-10-10T08:11:06.327Z,98764.81
2022-10-10T08:14:12.531Z,98775.03
2022-10-10T08:17:15.243Z,98770.38
2022-10-10T08:20:18.821Z,98765.72
2022-10-10T08:23:23.795Z,98764.34
2022-10-10T08:26:27.957Z,98761.66
2022-10-10T08:29:30.803Z,98753.13
2022-10-10T08:32:34.616Z,98755.69
2022-10-10T08:35:42.776Z,98754.78
2022-10-10T08:38:48.609Z,98754.94
2022-10-10T08:41:54.835Z,98754.44
2022-10-10T08:45:02.906Z,98747.63
2022-10-10T08:48:13.251Z,98744.19
2022-10-10T08:51:33.352Z,98748.81
2022-10-10T08:54:40.713Z,98748.34
2022-10-10T08:58:10.868Z,98749.25
2022-10-10T09:01:23.858Z,98744.09
2022-10-10T09:04:33.357Z,98738.78
2022-10-10T09:08:07.734Z,98736.97
2022-10-10T09:11:36.209Z,98736.53
2022-10-10T09:15:02.718Z,98735.22
2022-10-10T09:18:30.578Z,98741.81
2022-10-10T09:21:38.710Z,98742.22
2022-10-10T09:24:46.631Z,98727.91
2022-10-10T09:28:05.259Z,98722.97
2022-10-10T09:31:35.037Z,98725.28
2022-10-10T09:34:50.246Z,98731.44
2022-10-10T09:38:13.775Z,98728.75
2022-10-10T09:41:32.495Z,98730.78
2022-10-10T09:44:36.089Z,98732.63
2022-10-10T09:47:42.042Z,98724.47
2022-10-10T09:50:44.897Z,98729.09
2022-10-10T09:53:49.719Z,98729.94
2022-10-10T09:56:57.519Z,98717.06
2022-10-10T10:00:04.490Z,98715.09
2022-10-10T10:03:22.999Z,98714.06
2022-10-10T10:06:26.802Z,98715.25
2022-10-10T10:09:30.190Z,98712.13
2022-10-10T10:12:42.985Z,98713.41
2022-10-10T10:15:59.379Z,98715.13
2022-10-10T10:19:03.098Z,98710.81
2022-10-10T10:22:07.176Z,98714.81
2022-10-10T10:25:33.568Z,98709.06
2022-10-10T10:28:42.915Z,98709.56
2022-10-10T10:32:46.578Z,98706.84
2022-10-10T10:36:01.580Z,98704.53
2022-10-10T10:39:26.126Z,98697.69
2022-10-10T10:42:50.655Z,98703.13
2022-10-10T10:45:56.563Z,98695.28
2022-10-10T10:49:42.292Z,98692.25
2022-10-10T10:53:05.643Z,98686.69
2022-10-10T10:56:34.378Z,98678.34
2022-10-10T11:00:17.089Z,98675.22
2022-10-10T11:05:17.530Z,98677.47
2022-10-10T11:07:20.304Z,98669.91
2022-10-10T11:10:45.842Z,98665.91
2022-10-10T11:14:07.618Z,98664.97
2022-10-10T11:17:40.295Z,98660.19
2022-10-10T11:20:47.433Z,98650.50
2022-10-10T11:23:55.999Z,98653.53
2022-10-10T11:27:03.300Z,98647.84
2022-10-10T11:30:19.735Z,98645.75
2022-10-10T11:33:30.917Z,98636.88
2022-10-10T11:36:40.370Z,98637.38
2022-10-10T11:39:55.545Z,98633.59
2022-10-10T11:43:22.970Z,98625.88
2022-10-10T11:46:41.334Z,98616.78
2022-10-10T11:49:53.743Z,98626.38
2022-10-10T11:53:20.704Z,98627.41
2022-10-10T11:56:36.550Z,98622.13
2022-10-10T11:59:49.063Z,98623.66
2022-10-10T12:02:58.750Z,98620.47
2022-10-10T12:06:19.804Z,98617.06
2022-10-10T12:09:34.400Z,98614.53
2022-10-10T12:12:46.047Z,98609.94
2022-10-10T12:15:52.654Z,98614.13
2022-10-10T12:19:08.134Z,98604.47
2022-10-10T12:22:23.779Z,98606.47
2022-10-10T12:25:42.532Z,98597.44
2022-10-10T12:29:02.082Z,98598.63
2022-10-10T12:32:37.476Z,98598.19
2022-10-10T12:35:44.068Z,98595.19
2022-10-10T12:39:11.540Z,98601.03
2022-10-10T12:42:41.414Z,98596.25
2022-10-10T12:45:59.948Z,98586.16
2022-10-10T12:49:14.534Z,98587.84
2022-10-10T12:52:36.405Z,98585.00
2022-10-10T12:55:45.779Z,98583.44
2022-10-10T12:58:49.278Z,98576.13
2022-10-10T13:02:05.342Z,98580.41
2022-10-10T13:05:08.856Z,98581.59
2022-10-10T13:08:18.055Z,98575.13
2022-10-10T13:11:22.678Z,98575.25
2022-10-10T13:14:28.566Z,98571.25
2022-10-10T13:17:39.400Z,98570.63
2022-10-10T13:20:45.341Z,98563.53
2022-10-10T13:32:18.090Z,98555.44
2022-10-10T13:35:29.036Z,98546.59
2022-10-10T13:38:32.089Z,98542.66
2022-10-10T13:41:35.155Z,98544.00
2022-10-10T13:44:51.275Z,98543.72
2022-10-10T13:48:17.614Z,98541.63
2022-10-10T13:51:45.292Z,98539.19
2022-10-10T13:54:49.208Z,98536.31
2022-10-10T13:57:59.484Z,98533.94
2022-10-10T14:01:05.433Z,98537.81
2022-10-10T14:04:16.183Z,98528.28
2022-10-10T14:07:29.850Z,98520.34
2022-10-10T14:10:36.552Z,98526.09
2022-10-10T14:13:39.428Z,98524.25
2022-10-10T14:16:42.505Z,98513.63
2022-10-10T14:19:47.800Z,98517.84
2022-10-10T14:22:51.494Z,98513.16
2022-10-10T14:25:55.003Z,98519.03
2022-10-10T14:28:59.611Z,98512.38
2022-10-10T14:32:02.559Z,98508.78
2022-10-10T14:35:08.784Z,98514.00
2022-10-10T14:38:16.536Z,98517.97
2022-10-10T14:41:20.703Z,98515.19
2022-10-10T14:44:23.774Z,98513.84
2022-10-10T14:47:26.993Z,98523.06
2022-10-10T14:50:35.630Z,98516.38
2022-10-10T14:53:39.374Z,98512.72
2022-10-10T14:57:07.437Z,98518.66
2022-10-10T15:00:08.364Z,98518.00
2022-10-10T15:03:11.717Z,98517.31
2022-10-10T15:06:14.975Z,98508.44
2022-10-10T15:09:39.956Z,98505.97
2022-10-10T15:12:45.469Z,98514.53
2022-10-10T15:15:48.551Z,98514.44
2022-10-10T15:18:54.503Z,98516.53
2022-10-10T15:21:58.095Z,98510.28
2022-10-10T15:25:01.277Z,98506.16
2022-10-10T15:28:04.495Z,98505.97
2022-10-10T15:31:08.490Z,98498.34
2022-10-10T15:34:11.823Z,98500.22
2022-10-10T15:37:17.766Z,98511.28
2022-10-10T15:40:24.229Z,98510.75
2022-10-10T15:43:28.916Z,98507.91
2022-10-10T15:46:42.083Z,98506.41
2022-10-10T15:49:45.594Z,98519.69
2022-10-10T15:52:55.896Z,98514.94
2022-10-10T15:56:09.183Z,98522.38
2022-10-10T15:59:14.649Z,98514.47
2022-10-10T16:02:18.168Z,98509.22
2022-10-10T16:05:21.469Z,98513.34
2022-10-10T16:08:24.625Z,98513.53
2022-10-10T16:11:27.969Z,98523.94
2022-10-10T16:14:31.616Z,98521.44
2022-10-10T16:17:37.834Z,98526.16
2022-10-10T16:20:40.502Z,98532.75
2022-10-10T16:23:47.576Z,98534.91
2022-10-10T16:26:53.637Z,98535.81
2022-10-10T16:29:57.110Z,98539.72
2022-10-10T16:33:03.972Z,98543.28
2022-10-10T16:36:10.379Z,98542.41
2022-10-10T16:39:13.802Z,98538.44
2022-10-10T16:42:16.900Z,98537.09
2022-10-10T16:45:20.377Z,98537.81
2022-10-10T16:48:23.419Z,98546.53
2022-10-10T16:51:28.985Z,98535.81
2022-10-10T16:54:32.072Z,98536.94
2022-10-10T16:57:36.987Z,98537.41
2022-10-10T17:00:46.115Z,98542.63
2022-10-10T17:03:51.737Z,98544.88
2022-10-10T17:06:55.265Z,98542.03
2022-10-10T17:09:58.494Z,98543.31
2022-10-10T17:13:01.614Z,98551.53
2022-10-10T17:16:40.416Z,98547.69
2022-10-10T17:19:31.836Z,98547.78
2022-10-10T17:22:35.503Z,98548.63
2022-10-10T17:25:45.657Z,98551.19
2022-10-10T17:28:56.954Z,98549.56
2022-10-10T17:32:06.606Z,98553.50
2022-10-10T17:35:11.144Z,98549.97
2022-10-10T17:38:38.579Z,98549.03
2022-10-10T17:41:44.319Z,98556.59
2022-10-10T17:44:52.506Z,98553.94
2022-10-10T17:48:02.344Z,98544.44
2022-10-10T17:51:11.791Z,98547.69
2022-10-10T17:54:24.706Z,98545.53
2022-10-10T17:57:29.864Z,98553.78
2022-10-10T18:00:38.231Z,98557.56
2022-10-10T18:03:43.273Z,98553.56
2022-10-10T18:06:48.597Z,98556.13
2022-10-10T18:09:53.773Z,98552.59
2022-10-10T18:12:57.599Z,98553.03
2022-10-10T18:16:13.173Z,98549.88
2022-10-10T18:19:20.104Z,98553.16
2022-10-10T18:22:29.980Z,98547.78
2022-10-10T18:25:34.954Z,98541.59
2022-10-10T18:28:43.200Z,98539.47
2022-10-10T18:31:47.245Z,98538.94
2022-10-10T18:34:50.009Z,98535.44
2022-10-10T18:37:57.098Z,98536.19
2022-10-10T18:41:08.157Z,98544.00
2022-10-10T18:44:18.101Z,98540.19
2022-10-10T18:47:25.175Z,98539.06
2022-10-10T18:50:29.356Z,98536.28
2022-10-10T18:53:35.137Z,98544.50
2022-10-10T18:56:43.199Z,98537.16
2022-10-10T18:59:46.139Z,98541.06
2022-10-10T19:02:52.070Z,98536.00
2022-10-10T19:06:01.035Z,98544.84
2022-10-10T19:09:07.087Z,98540.59
2022-10-10T19:12:10.089Z,98540.63
2022-10-10T19:15:13.280Z,98540.88
2022-10-10T19:18:17.114Z,98545.88
2022-10-10T19:21:21.107Z,98544.22
2022-10-10T19:24:26.948Z,98544.78
2022-10-10T19:27:32.829Z,98549.75
2022-10-10T19:30:41.015Z,98552.53
2022-10-10T19:33:45.311Z,98549.19
2022-10-10T19:36:49.791Z,98552.50
2022-10-10T19:39:52.705Z,98563.00
2022-10-10T19:42:55.805Z,98555.81
2022-10-10T19:45:59.484Z,98550.56
2022-10-10T19:49:05.407Z,98562.56
2022-10-10T19:52:14.347Z,98563.81
2022-10-10T19:55:25.374Z,98563.50
2022-10-10T19:58:32.322Z,98566.16
2022-10-10T20:01:36.093Z,98566.56
2022-10-10T20:04:40.413Z,98558.56
2022-10-10T20:07:44.103Z,98565.47
2022-10-10T20:10:49.957Z,98559.88
2022-10-10T20:13:56.319Z,98558.41
2022-10-10T20:16:59.575Z,98555.22
2022-10-10T20:20:03.538Z,98553.88
2022-10-10T20:23:07.148Z,98565.13
2022-10-10T20:26:12.915Z,98564.47
2022-10-10T20:29:15.993Z,98570.16
2022-10-10T20:32:24.290Z,98563.81
2022-10-10T20:35:30.198Z,98557.47
2022-10-10T20:38:34.248Z,98560.22
2022-10-10T20:41:39.061Z,98562.28
2022-10-10T20:44:42.159Z,98566.84
2022-10-10T20:47:45.473Z,98564.38
2022-10-10T20:50:48.411Z,98565.19
2022-10-10T20:53:59.952Z,98566.84
2022-10-10T20:57:03.286Z,98570.16
2022-10-10T21:00:07.354Z,98574.63
2022-10-10T21:03:13.480Z,98569.91
2022-10-10T21:06:26.297Z,98566.47
2022-10-10T21:09:29.117Z,98562.16
2022-10-10T21:12:32.478Z,98564.13
2022-10-10T21:15:35.672Z,98558.59
2022-10-10T21:18:38.323Z,98568.28
2022-10-10T21:21:43.835Z,98569.50
2022-10-10T21:24:49.424Z,98562.31
2022-10-10T21:27:55.275Z,98565.22
2022-10-10T21:30:58.550Z,98567.41
2022-10-10T21:34:02.576Z,98562.75
2022-10-10T21:37:10.795Z,98569.94
2022-10-10T21:40:14.036Z,98568.00
2022-10-10T21:43:20.112Z,98575.31
2022-10-10T21:46:26.165Z,98568.13
2022-10-10T21:49:29.188Z,98559.28
2022-10-10T21:52:32.160Z,98558.06
2022-10-10T21:55:40.800Z,98561.09
2022-10-10T21:58:45.525Z,98563.59
2022-10-10T22:01:51.211Z,98564.81
2022-10-10T22:05:00.483Z,98564.69
2022-10-10T22:08:07.166Z,98559.44
2022-10-10T22:11:16.278Z,98559.44
2022-10-10T22:14:18.899Z,98557.47
2022-10-10T22:17:24.386Z,98552.81
2022-10-10T22:20:27.014Z,98550.03
2022-10-10T22:23:29.975Z,98554.03
2022-10-10T22:26:34.332Z,98554.47
2022-10-10T22:29:39.893Z,98554.72
2022-10-10T22:32:42.469Z,98550.84
2022-10-10T22:35:51.506Z,98552.81
2022-10-10T22:38:54.165Z,98544.06
2022-10-10T22:41:57.481Z,98539.25
2022-10-10T22:45:00.171Z,98540.63
2022-10-10T22:48:05.194Z,98546.97
2022-10-10T22:51:21.869Z,98546.97
2022-10-10T22:54:25.134Z,98538.41
2022-10-10T22:57:30.036Z,98551.53
2022-10-10T23:00:34.329Z,98546.13
2022-10-10T23:03:37.057Z,98546.56
2022-10-10T23:06:42.389Z,98548.09
2022-10-10T23:09:45.225Z,98561.22
2022-10-10T23:12:47.785Z,98558.97
2022-10-10T23:15:56.261Z,98557.63
2022-10-10T23:18:58.950Z,98557.19
2022-10-10T23:22:08.070Z,98554.44
2022-10-10T23:25:10.631Z,98551.53
2022-10-10T23:28:20.493Z,98550.53
2022-10-10T23:31:26.105Z,98546.38
2022-10-10T23:34:31.893Z,98539.31
2022-10-10T23:37:34.972Z,98540.44
2022-10-10T23:40:37.749Z,98540.84
2022-10-10T23:43:43.462Z,98545.25
2022-10-10T23:46:46.177Z,98547.75
2022-10-10T23:49:48.739Z,98542.19
2022-10-10T23:52:51.425Z,98535.84
2022-10-10T23:55:54.199Z,98528.66
2022-10-10T23:58:56.824Z,98531.72
